sensor_id;sensor_type;location;lat;lon;timestamp;temperature;humidity
61016;DHT22;46902;52.920;6.536;2023-06-26T00:00:19;24.20;70.70
61016;DHT22;46902;52.920;6.536;2023-06-26T00:02:44;24.20;71.00
61016;DHT22;46902;52.920;6.536;2023-06-26T00:05:10;24.10;71.10
61016;DHT22;46902;52.920;6.536;2023-06-26T00:07:36;24.10;71.10
61016;DHT22;46902;52.920;6.536;2023-06-26T00:10:05;24.10;71.20
61016;DHT22;46902;52.920;6.536;2023-06-26T00:12:31;24.10;71.20
61016;DHT22;46902;52.920;6.536;2023-06-26T00:14:58;24.10;71.20
61016;DHT22;46902;52.920;6.536;2023-06-26T00:17:24;24.10;71.50
61016;DHT22;46902;52.920;6.536;2023-06-26T00:19:50;24.10;71.70
61016;DHT22;46902;52.920;6.536;2023-06-26T00:22:15;24.10;71.70
61016;DHT22;46902;52.920;6.536;2023-06-26T00:24:41;24.10;71.70
61016;DHT22;46902;52.920;6.536;2023-06-26T00:27:07;24.10;71.50
61016;DHT22;46902;52.920;6.536;2023-06-26T00:29:32;24.10;71.40
61016;DHT22;46902;52.920;6.536;2023-06-26T00:31:58;24.10;71.60
61016;DHT22;46902;52.920;6.536;2023-06-26T00:34:23;24.00;71.60
61016;DHT22;46902;52.920;6.536;2023-06-26T00:36:49;24.00;71.80
61016;DHT22;46902;52.920;6.536;2023-06-26T00:39:15;24.00;72.00
61016;DHT22;46902;52.920;6.536;2023-06-26T00:41:40;23.90;72.10
61016;DHT22;46902;52.920;6.536;2023-06-26T00:44:06;23.90;72.30
61016;DHT22;46902;52.920;6.536;2023-06-26T00:46:32;23.90;72.40
61016;DHT22;46902;52.920;6.536;2023-06-26T00:49:00;23.90;72.50
61016;DHT22;46902;52.920;6.536;2023-06-26T00:51:27;23.80;72.40
61016;DHT22;46902;52.920;6.536;2023-06-26T00:53:53;23.80;72.80
61016;DHT22;46902;52.920;6.536;2023-06-26T00:56:20;23.80;73.70
61016;DHT22;46902;52.920;6.536;2023-06-26T00:58:45;23.80;73.30
61016;DHT22;46902;52.920;6.536;2023-06-26T01:01:11;23.70;73.40
61016;DHT22;46902;52.920;6.536;2023-06-26T01:03:45;23.70;73.30
61016;DHT22;46902;52.920;6.536;2023-06-26T01:06:13;23.60;73.60
61016;DHT22;46902;52.920;6.536;2023-06-26T01:08:41;23.60;73.90
61016;DHT22;46902;52.920;6.536;2023-06-26T01:11:07;23.60;74.00
61016;DHT22;46902;52.920;6.536;2023-06-26T01:13:33;23.50;74.10
61016;DHT22;46902;52.920;6.536;2023-06-26T01:16:00;23.50;74.40
61016;DHT22;46902;52.920;6.536;2023-06-26T01:18:26;23.50;74.50
61016;DHT22;46902;52.920;6.536;2023-06-26T01:20:53;23.40;74.60
61016;DHT22;46902;52.920;6.536;2023-06-26T01:28:40;23.30;75.30
61016;DHT22;46902;52.920;6.536;2023-06-26T01:31:07;23.30;75.30
61016;DHT22;46902;52.920;6.536;2023-06-26T01:33:34;23.30;75.20
61016;DHT22;46902;52.920;6.536;2023-06-26T01:36:01;23.30;75.40
61016;DHT22;46902;52.920;6.536;2023-06-26T01:38:26;23.30;75.50
61016;DHT22;46902;52.920;6.536;2023-06-26T01:40:52;23.30;75.50
61016;DHT22;46902;52.920;6.536;2023-06-26T01:43:46;23.30;75.60
61016;DHT22;46902;52.920;6.536;2023-06-26T01:46:21;23.30;75.60
61016;DHT22;46902;52.920;6.536;2023-06-26T01:51:41;23.20;76.00
61016;DHT22;46902;52.920;6.536;2023-06-26T01:54:13;23.20;76.10
61016;DHT22;46902;52.920;6.536;2023-06-26T01:56:40;23.20;76.30
61016;DHT22;46902;52.920;6.536;2023-06-26T01:59:06;23.10;76.40
61016;DHT22;46902;52.920;6.536;2023-06-26T02:01:33;23.10;76.60
61016;DHT22;46902;52.920;6.536;2023-06-26T02:03:59;23.10;76.60
61016;DHT22;46902;52.920;6.536;2023-06-26T02:06:25;23.10;76.70
61016;DHT22;46902;52.920;6.536;2023-06-26T02:08:50;23.10;76.80
61016;DHT22;46902;52.920;6.536;2023-06-26T02:11:16;23.10;76.80
61016;DHT22;46902;52.920;6.536;2023-06-26T02:13:42;23.10;77.10
61016;DHT22;46902;52.920;6.536;2023-06-26T02:16:07;23.00;77.60
61016;DHT22;46902;52.920;6.536;2023-06-26T02:18:33;22.90;77.90
61016;DHT22;46902;52.920;6.536;2023-06-26T02:20:58;22.70;78.50
61016;DHT22;46902;52.920;6.536;2023-06-26T02:23:24;22.60;79.10
61016;DHT22;46902;52.920;6.536;2023-06-26T02:25:50;22.40;79.70
61016;DHT22;46902;52.920;6.536;2023-06-26T02:28:15;22.30;80.30
61016;DHT22;46902;52.920;6.536;2023-06-26T02:30:41;22.20;80.90
61016;DHT22;46902;52.920;6.536;2023-06-26T02:33:06;22.10;81.50
61016;DHT22;46902;52.920;6.536;2023-06-26T02:35:32;22.10;82.00
61016;DHT22;46902;52.920;6.536;2023-06-26T02:37:58;22.10;82.20
61016;DHT22;46902;52.920;6.536;2023-06-26T02:40:24;22.10;82.50
61016;DHT22;46902;52.920;6.536;2023-06-26T02:42:49;22.10;82.90
61016;DHT22;46902;52.920;6.536;2023-06-26T02:45:15;22.00;83.20
61016;DHT22;46902;52.920;6.536;2023-06-26T02:47:40;22.00;83.50
61016;DHT22;46902;52.920;6.536;2023-06-26T02:50:07;21.90;84.10
61016;DHT22;46902;52.920;6.536;2023-06-26T02:52:32;21.80;84.70
61016;DHT22;46902;52.920;6.536;2023-06-26T02:54:58;21.80;85.20
61016;DHT22;46902;52.920;6.536;2023-06-26T02:57:24;21.80;85.80
61016;DHT22;46902;52.920;6.536;2023-06-26T02:59:49;21.70;85.80
61016;DHT22;46902;52.920;6.536;2023-06-26T03:02:15;21.80;86.10
61016;DHT22;46902;52.920;6.536;2023-06-26T03:04:40;21.80;86.10
61016;DHT22;46902;52.920;6.536;2023-06-26T03:07:08;21.80;86.20
61016;DHT22;46902;52.920;6.536;2023-06-26T03:09:34;21.80;86.40
61016;DHT22;46902;52.920;6.536;2023-06-26T03:11:59;21.70;87.50
61016;DHT22;46902;52.920;6.536;2023-06-26T03:14:25;21.60;87.40
61016;DHT22;46902;52.920;6.536;2023-06-26T03:16:52;21.50;88.00
61016;DHT22;46902;52.920;6.536;2023-06-26T03:19:18;21.50;88.60
61016;DHT22;46902;52.920;6.536;2023-06-26T03:21:44;21.50;89.30
61016;DHT22;46902;52.920;6.536;2023-06-26T03:24:09;21.50;89.50
61016;DHT22;46902;52.920;6.536;2023-06-26T03:26:35;21.50;90.00
61016;DHT22;46902;52.920;6.536;2023-06-26T03:29:00;21.60;90.10
61016;DHT22;46902;52.920;6.536;2023-06-26T03:31:26;21.60;90.20
61016;DHT22;46902;52.920;6.536;2023-06-26T03:33:52;21.60;90.20
61016;DHT22;46902;52.920;6.536;2023-06-26T03:36:17;21.70;90.30
61016;DHT22;46902;52.920;6.536;2023-06-26T03:38:43;21.70;90.30
61016;DHT22;46902;52.920;6.536;2023-06-26T03:41:08;21.80;90.30
61016;DHT22;46902;52.920;6.536;2023-06-26T03:43:34;21.80;90.30
61016;DHT22;46902;52.920;6.536;2023-06-26T03:45:59;21.90;90.40
61016;DHT22;46902;52.920;6.536;2023-06-26T03:48:25;21.90;90.50
61016;DHT22;46902;52.920;6.536;2023-06-26T03:50:51;21.90;90.60
61016;DHT22;46902;52.920;6.536;2023-06-26T03:53:16;21.90;90.60
61016;DHT22;46902;52.920;6.536;2023-06-26T03:55:42;22.00;90.80
61016;DHT22;46902;52.920;6.536;2023-06-26T03:58:08;22.00;91.00
61016;DHT22;46902;52.920;6.536;2023-06-26T04:00:33;22.00;91.10
61016;DHT22;46902;52.920;6.536;2023-06-26T04:02:59;22.00;91.30
61016;DHT22;46902;52.920;6.536;2023-06-26T04:05:24;22.00;91.40
61016;DHT22;46902;52.920;6.536;2023-06-26T04:07:51;22.10;91.40
61016;DHT22;46902;52.920;6.536;2023-06-26T04:10:17;22.10;91.50
61016;DHT22;46902;52.920;6.536;2023-06-26T04:12:42;22.10;91.60
61016;DHT22;46902;52.920;6.536;2023-06-26T04:15:08;22.20;91.70
61016;DHT22;46902;52.920;6.536;2023-06-26T04:17:34;22.20;91.80
61016;DHT22;46902;52.920;6.536;2023-06-26T04:19:59;22.20;92.10
61016;DHT22;46902;52.920;6.536;2023-06-26T04:22:25;22.10;92.20
61016;DHT22;46902;52.920;6.536;2023-06-26T04:24:51;22.20;92.40
61016;DHT22;46902;52.920;6.536;2023-06-26T04:27:17;22.20;92.50
61016;DHT22;46902;52.920;6.536;2023-06-26T04:29:43;22.20;92.60
61016;DHT22;46902;52.920;6.536;2023-06-26T04:32:09;22.20;92.70
61016;DHT22;46902;52.920;6.536;2023-06-26T04:34:34;22.20;92.70
61016;DHT22;46902;52.920;6.536;2023-06-26T04:37:02;22.20;92.90
61016;DHT22;46902;52.920;6.536;2023-06-26T04:39:30;22.20;92.90
61016;DHT22;46902;52.920;6.536;2023-06-26T04:41:55;22.30;93.20
61016;DHT22;46902;52.920;6.536;2023-06-26T04:44:21;22.30;93.30
61016;DHT22;46902;52.920;6.536;2023-06-26T04:46:47;22.30;93.40
61016;DHT22;46902;52.920;6.536;2023-06-26T04:49:12;22.30;93.50
61016;DHT22;46902;52.920;6.536;2023-06-26T04:51:38;22.40;93.80
61016;DHT22;46902;52.920;6.536;2023-06-26T04:54:10;22.40;93.90
61016;DHT22;46902;52.920;6.536;2023-06-26T04:56:36;22.40;94.10
61016;DHT22;46902;52.920;6.536;2023-06-26T04:59:02;22.30;94.40
61016;DHT22;46902;52.920;6.536;2023-06-26T05:01:28;22.30;94.70
61016;DHT22;46902;52.920;6.536;2023-06-26T05:03:58;22.30;95.00
61016;DHT22;46902;52.920;6.536;2023-06-26T05:06:24;22.30;95.30
61016;DHT22;46902;52.920;6.536;2023-06-26T05:08:50;22.30;95.40
61016;DHT22;46902;52.920;6.536;2023-06-26T05:11:15;22.30;95.60
61016;DHT22;46902;52.920;6.536;2023-06-26T05:13:41;22.20;95.60
61016;DHT22;46902;52.920;6.536;2023-06-26T05:16:08;22.20;95.60
61016;DHT22;46902;52.920;6.536;2023-06-26T05:18:35;22.20;95.80
61016;DHT22;46902;52.920;6.536;2023-06-26T05:21:01;22.10;95.80
61016;DHT22;46902;52.920;6.536;2023-06-26T05:23:27;22.20;95.80
61016;DHT22;46902;52.920;6.536;2023-06-26T05:25:54;22.20;95.80
61016;DHT22;46902;52.920;6.536;2023-06-26T05:28:20;22.10;95.90
61016;DHT22;46902;52.920;6.536;2023-06-26T05:30:45;22.10;96.20
61016;DHT22;46902;52.920;6.536;2023-06-26T05:33:14;22.00;96.30
61016;DHT22;46902;52.920;6.536;2023-06-26T05:35:45;21.90;96.60
61016;DHT22;46902;52.920;6.536;2023-06-26T05:38:10;21.90;96.80
61016;DHT22;46902;52.920;6.536;2023-06-26T05:40:36;21.80;97.10
61016;DHT22;46902;52.920;6.536;2023-06-26T05:43:02;21.70;97.20
61016;DHT22;46902;52.920;6.536;2023-06-26T05:45:28;21.60;97.40
61016;DHT22;46902;52.920;6.536;2023-06-26T05:47:54;21.50;97.60
61016;DHT22;46902;52.920;6.536;2023-06-26T05:50:20;21.50;97.90
61016;DHT22;46902;52.920;6.536;2023-06-26T05:52:46;21.60;98.00
61016;DHT22;46902;52.920;6.536;2023-06-26T05:55:12;21.60;98.20
61016;DHT22;46902;52.920;6.536;2023-06-26T05:57:39;21.60;97.90
61016;DHT22;46902;52.920;6.536;2023-06-26T06:00:06;21.60;98.20
61016;DHT22;46902;52.920;6.536;2023-06-26T06:02:36;21.60;97.90
61016;DHT22;46902;52.920;6.536;2023-06-26T06:05:02;21.70;98.00
61016;DHT22;46902;52.920;6.536;2023-06-26T06:07:28;21.60;97.80
61016;DHT22;46902;52.920;6.536;2023-06-26T06:09:53;21.60;97.70
61016;DHT22;46902;52.920;6.536;2023-06-26T06:12:19;21.50;97.60
61016;DHT22;46902;52.920;6.536;2023-06-26T06:14:44;21.60;97.50
61016;DHT22;46902;52.920;6.536;2023-06-26T06:17:10;21.60;96.70
61016;DHT22;46902;52.920;6.536;2023-06-26T06:19:35;21.60;95.60
61016;DHT22;46902;52.920;6.536;2023-06-26T06:22:01;21.50;95.20
61016;DHT22;46902;52.920;6.536;2023-06-26T06:24:29;21.50;94.50
61016;DHT22;46902;52.920;6.536;2023-06-26T06:26:55;21.50;94.20
61016;DHT22;46902;52.920;6.536;2023-06-26T06:29:20;21.50;94.20
61016;DHT22;46902;52.920;6.536;2023-06-26T06:31:46;21.60;94.00
61016;DHT22;46902;52.920;6.536;2023-06-26T06:34:12;21.70;93.70
61016;DHT22;46902;52.920;6.536;2023-06-26T06:36:38;21.70;93.50
61016;DHT22;46902;52.920;6.536;2023-06-26T06:39:03;21.90;93.20
61016;DHT22;46902;52.920;6.536;2023-06-26T06:41:29;21.90;92.70
61016;DHT22;46902;52.920;6.536;2023-06-26T06:43:55;21.90;92.20
61016;DHT22;46902;52.920;6.536;2023-06-26T06:46:20;21.90;91.90
61016;DHT22;46902;52.920;6.536;2023-06-26T06:48:48;22.00;91.40
61016;DHT22;46902;52.920;6.536;2023-06-26T06:51:14;22.00;91.10
61016;DHT22;46902;52.920;6.536;2023-06-26T06:53:40;22.00;90.80
61016;DHT22;46902;52.920;6.536;2023-06-26T06:56:05;22.00;90.70
61016;DHT22;46902;52.920;6.536;2023-06-26T06:58:31;21.90;90.80
61016;DHT22;46902;52.920;6.536;2023-06-26T07:00:59;22.00;90.70
61016;DHT22;46902;52.920;6.536;2023-06-26T07:03:25;22.00;90.60
61016;DHT22;46902;52.920;6.536;2023-06-26T07:05:50;22.10;90.40
61016;DHT22;46902;52.920;6.536;2023-06-26T07:08:16;22.10;89.90
61016;DHT22;46902;52.920;6.536;2023-06-26T07:10:42;22.20;88.20
61016;DHT22;46902;52.920;6.536;2023-06-26T07:13:07;22.20;87.80
61016;DHT22;46902;52.920;6.536;2023-06-26T07:15:33;22.20;87.80
61016;DHT22;46902;52.920;6.536;2023-06-26T07:17:59;22.20;87.70
61016;DHT22;46902;52.920;6.536;2023-06-26T07:20:24;22.30;88.10
61016;DHT22;46902;52.920;6.536;2023-06-26T07:22:50;22.40;87.80
61016;DHT22;46902;52.920;6.536;2023-06-26T07:25:15;22.50;87.70
61016;DHT22;46902;52.920;6.536;2023-06-26T07:27:41;22.60;86.70
61016;DHT22;46902;52.920;6.536;2023-06-26T07:30:08;22.60;86.40
61016;DHT22;46902;52.920;6.536;2023-06-26T07:32:35;22.60;86.30
61016;DHT22;46902;52.920;6.536;2023-06-26T07:35:01;22.60;86.10
61016;DHT22;46902;52.920;6.536;2023-06-26T07:37:26;22.70;85.80
61016;DHT22;46902;52.920;6.536;2023-06-26T07:39:52;22.80;85.30
61016;DHT22;46902;52.920;6.536;2023-06-26T07:42:18;22.90;85.40
61016;DHT22;46902;52.920;6.536;2023-06-26T07:44:43;23.00;85.40
61016;DHT22;46902;52.920;6.536;2023-06-26T07:47:09;23.10;84.30
61016;DHT22;46902;52.920;6.536;2023-06-26T07:49:35;23.20;83.70
61016;DHT22;46902;52.920;6.536;2023-06-26T07:52:01;23.30;82.90
61016;DHT22;46902;52.920;6.536;2023-06-26T07:54:27;23.30;82.40
61016;DHT22;46902;52.920;6.536;2023-06-26T07:56:57;23.20;81.20
61016;DHT22;46902;52.920;6.536;2023-06-26T07:59:24;23.30;80.80
61016;DHT22;46902;52.920;6.536;2023-06-26T08:01:51;23.40;81.50
61016;DHT22;46902;52.920;6.536;2023-06-26T08:04:22;23.50;80.70
61016;DHT22;46902;52.920;6.536;2023-06-26T08:06:49;23.60;78.80
61016;DHT22;46902;52.920;6.536;2023-06-26T08:09:16;23.50;78.60
61016;DHT22;46902;52.920;6.536;2023-06-26T08:11:41;23.50;78.40
61016;DHT22;46902;52.920;6.536;2023-06-26T08:14:07;23.60;78.60
61016;DHT22;46902;52.920;6.536;2023-06-26T08:16:32;23.50;78.10
61016;DHT22;46902;52.920;6.536;2023-06-26T08:18:58;23.50;77.90
61016;DHT22;46902;52.920;6.536;2023-06-26T08:21:24;23.50;78.20
61016;DHT22;46902;52.920;6.536;2023-06-26T08:23:49;23.60;78.50
61016;DHT22;46902;52.920;6.536;2023-06-26T08:26:15;23.70;77.90
61016;DHT22;46902;52.920;6.536;2023-06-26T08:28:40;23.60;78.20
61016;DHT22;46902;52.920;6.536;2023-06-26T08:31:06;23.50;77.60
61016;DHT22;46902;52.920;6.536;2023-06-26T08:33:32;23.50;78.10
61016;DHT22;46902;52.920;6.536;2023-06-26T08:35:57;23.60;77.50
61016;DHT22;46902;52.920;6.536;2023-06-26T08:38:23;23.80;77.30
61016;DHT22;46902;52.920;6.536;2023-06-26T08:40:49;24.00;76.90
61016;DHT22;46902;52.920;6.536;2023-06-26T08:43:14;24.00;76.40
61016;DHT22;46902;52.920;6.536;2023-06-26T08:45:40;24.00;76.40
61016;DHT22;46902;52.920;6.536;2023-06-26T08:48:08;24.00;76.10
61016;DHT22;46902;52.920;6.536;2023-06-26T08:50:35;24.00;74.80
61016;DHT22;46902;52.920;6.536;2023-06-26T08:55:53;24.10;75.50
61016;DHT22;46902;52.920;6.536;2023-06-26T08:58:20;24.10;75.30
61016;DHT22;46902;52.920;6.536;2023-06-26T09:00:45;23.90;74.60
61016;DHT22;46902;52.920;6.536;2023-06-26T09:03:12;24.00;75.60
61016;DHT22;46902;52.920;6.536;2023-06-26T09:05:39;24.10;75.40
61016;DHT22;46902;52.920;6.536;2023-06-26T09:08:05;24.20;74.70
61016;DHT22;46902;52.920;6.536;2023-06-26T09:10:31;24.20;75.00
61016;DHT22;46902;52.920;6.536;2023-06-26T09:12:57;24.10;74.50
61016;DHT22;46902;52.920;6.536;2023-06-26T09:15:24;24.10;74.40
61016;DHT22;46902;52.920;6.536;2023-06-26T09:17:49;23.80;74.20
61016;DHT22;46902;52.920;6.536;2023-06-26T09:20:15;23.80;74.70
61016;DHT22;46902;52.920;6.536;2023-06-26T09:22:47;23.90;75.20
61016;DHT22;46902;52.920;6.536;2023-06-26T09:25:13;24.10;75.50
61016;DHT22;46902;52.920;6.536;2023-06-26T09:27:39;23.90;74.50
61016;DHT22;46902;52.920;6.536;2023-06-26T09:30:06;23.80;75.30
61016;DHT22;46902;52.920;6.536;2023-06-26T09:32:35;23.60;75.00
61016;DHT22;46902;52.920;6.536;2023-06-26T09:35:04;23.40;75.40
61016;DHT22;46902;52.920;6.536;2023-06-26T09:37:30;23.60;76.00
61016;DHT22;46902;52.920;6.536;2023-06-26T09:39:56;23.70;76.10
61016;DHT22;46902;52.920;6.536;2023-06-26T09:42:21;23.90;75.50
61016;DHT22;46902;52.920;6.536;2023-06-26T09:44:48;23.90;74.00
61016;DHT22;46902;52.920;6.536;2023-06-26T09:47:19;23.90;73.20
61016;DHT22;46902;52.920;6.536;2023-06-26T09:49:45;24.10;72.60
61016;DHT22;46902;52.920;6.536;2023-06-26T09:52:14;24.20;72.20
61016;DHT22;46902;52.920;6.536;2023-06-26T09:54:41;24.40;72.20
61016;DHT22;46902;52.920;6.536;2023-06-26T09:57:15;24.40;72.70
61016;DHT22;46902;52.920;6.536;2023-06-26T09:59:42;24.50;72.90
61016;DHT22;46902;52.920;6.536;2023-06-26T10:02:09;24.70;72.60
61016;DHT22;46902;52.920;6.536;2023-06-26T10:04:36;24.90;71.40
61016;DHT22;46902;52.920;6.536;2023-06-26T10:07:06;24.90;69.40
61016;DHT22;46902;52.920;6.536;2023-06-26T10:09:33;25.10;67.90
61016;DHT22;46902;52.920;6.536;2023-06-26T10:12:19;25.10;68.50
61016;DHT22;46902;52.920;6.536;2023-06-26T10:14:45;25.40;69.00
61016;DHT22;46902;52.920;6.536;2023-06-26T10:17:15;25.60;68.50
61016;DHT22;46902;52.920;6.536;2023-06-26T10:19:44;25.70;67.60
61016;DHT22;46902;52.920;6.536;2023-06-26T10:22:13;25.70;65.70
61016;DHT22;46902;52.920;6.536;2023-06-26T10:24:40;25.40;65.00
61016;DHT22;46902;52.920;6.536;2023-06-26T10:27:20;25.40;65.50
61016;DHT22;46902;52.920;6.536;2023-06-26T10:29:53;25.30;65.40
61016;DHT22;46902;52.920;6.536;2023-06-26T10:32:21;25.10;66.40
61016;DHT22;46902;52.920;6.536;2023-06-26T10:34:49;25.30;66.90
61016;DHT22;46902;52.920;6.536;2023-06-26T10:37:15;25.50;66.40
61016;DHT22;46902;52.920;6.536;2023-06-26T10:39:53;25.70;64.90
61016;DHT22;46902;52.920;6.536;2023-06-26T10:42:36;25.60;63.50
61016;DHT22;46902;52.920;6.536;2023-06-26T10:45:19;25.50;63.70
61016;DHT22;46902;52.920;6.536;2023-06-26T10:47:51;25.70;64.00
61016;DHT22;46902;52.920;6.536;2023-06-26T10:50:28;25.50;61.80
61016;DHT22;46902;52.920;6.536;2023-06-26T10:53:15;25.50;62.10
61016;DHT22;46902;52.920;6.536;2023-06-26T10:55:58;25.40;61.30
61016;DHT22;46902;52.920;6.536;2023-06-26T10:58:40;25.10;62.00
61016;DHT22;46902;52.920;6.536;2023-06-26T11:01:19;24.90;62.50
61016;DHT22;46902;52.920;6.536;2023-06-26T11:04:01;25.10;63.10
61016;DHT22;46902;52.920;6.536;2023-06-26T11:06:29;25.30;61.30
61016;DHT22;46902;52.920;6.536;2023-06-26T11:09:01;25.50;61.10
61016;DHT22;46902;52.920;6.536;2023-06-26T11:14:19;26.00;58.30
61016;DHT22;46902;52.920;6.536;2023-06-26T11:16:45;26.00;59.10
61016;DHT22;46902;52.920;6.536;2023-06-26T11:19:12;26.10;59.30
61016;DHT22;46902;52.920;6.536;2023-06-26T11:21:38;26.00;57.80
61016;DHT22;46902;52.920;6.536;2023-06-26T11:24:06;26.00;58.00
61016;DHT22;46902;52.920;6.536;2023-06-26T11:26:38;26.10;56.50
61016;DHT22;46902;52.920;6.536;2023-06-26T11:29:04;26.20;56.60
61016;DHT22;46902;52.920;6.536;2023-06-26T11:31:38;26.10;56.80
61016;DHT22;46902;52.920;6.536;2023-06-26T11:34:06;26.00;57.70
61016;DHT22;46902;52.920;6.536;2023-06-26T11:36:36;25.90;57.90
61016;DHT22;46902;52.920;6.536;2023-06-26T11:39:04;26.10;59.10
61016;DHT22;46902;52.920;6.536;2023-06-26T11:41:32;26.30;58.30
61016;DHT22;46902;52.920;6.536;2023-06-26T11:44:02;26.10;56.80
61016;DHT22;46902;52.920;6.536;2023-06-26T11:46:29;26.20;57.10
61016;DHT22;46902;52.920;6.536;2023-06-26T11:48:55;26.20;56.00
61016;DHT22;46902;52.920;6.536;2023-06-26T11:51:21;26.30;55.40
61016;DHT22;46902;52.920;6.536;2023-06-26T11:53:47;26.50;55.10
61016;DHT22;46902;52.920;6.536;2023-06-26T11:56:17;26.40;55.60
61016;DHT22;46902;52.920;6.536;2023-06-26T11:59:02;26.30;55.50
61016;DHT22;46902;52.920;6.536;2023-06-26T12:01:44;26.10;53.90
61016;DHT22;46902;52.920;6.536;2023-06-26T12:04:11;26.00;55.60
61016;DHT22;46902;52.920;6.536;2023-06-26T12:06:45;25.70;56.50
61016;DHT22;46902;52.920;6.536;2023-06-26T12:09:12;25.60;57.30
61016;DHT22;46902;52.920;6.536;2023-06-26T12:11:41;25.60;57.40
61016;DHT22;46902;52.920;6.536;2023-06-26T12:14:08;25.60;56.40
61016;DHT22;46902;52.920;6.536;2023-06-26T12:16:35;25.60;55.80
61016;DHT22;46902;52.920;6.536;2023-06-26T12:19:02;25.60;55.90
61016;DHT22;46902;52.920;6.536;2023-06-26T12:21:44;25.60;55.40
61016;DHT22;46902;52.920;6.536;2023-06-26T12:24:20;25.60;54.30
61016;DHT22;46902;52.920;6.536;2023-06-26T12:26:52;25.50;55.10
61016;DHT22;46902;52.920;6.536;2023-06-26T12:29:20;25.70;55.30
61016;DHT22;46902;52.920;6.536;2023-06-26T12:31:51;25.80;54.00
61016;DHT22;46902;52.920;6.536;2023-06-26T12:34:26;25.80;54.50
61016;DHT22;46902;52.920;6.536;2023-06-26T12:36:52;25.80;53.50
61016;DHT22;46902;52.920;6.536;2023-06-26T12:39:19;25.90;54.00
61016;DHT22;46902;52.920;6.536;2023-06-26T12:42:08;26.00;53.00
61016;DHT22;46902;52.920;6.536;2023-06-26T12:44:32;26.10;53.40
61016;DHT22;46902;52.920;6.536;2023-06-26T12:47:00;26.20;52.70
61016;DHT22;46902;52.920;6.536;2023-06-26T12:49:38;26.30;52.10
61016;DHT22;46902;52.920;6.536;2023-06-26T12:52:09;26.40;51.50
61016;DHT22;46902;52.920;6.536;2023-06-26T12:54:36;26.40;52.10
61016;DHT22;46902;52.920;6.536;2023-06-26T12:57:02;26.30;52.90
61016;DHT22;46902;52.920;6.536;2023-06-26T12:59:29;26.20;52.60
61016;DHT22;46902;52.920;6.536;2023-06-26T13:01:55;26.00;53.40
61016;DHT22;46902;52.920;6.536;2023-06-26T13:04:21;25.70;53.80
61016;DHT22;46902;52.920;6.536;2023-06-26T13:06:47;25.60;54.60
61016;DHT22;46902;52.920;6.536;2023-06-26T13:09:12;25.50;54.80
61016;DHT22;46902;52.920;6.536;2023-06-26T13:11:38;25.50;55.70
61016;DHT22;46902;52.920;6.536;2023-06-26T13:14:04;25.40;56.70
61016;DHT22;46902;52.920;6.536;2023-06-26T13:16:29;25.40;57.20
61016;DHT22;46902;52.920;6.536;2023-06-26T13:18:57;25.30;58.00
61016;DHT22;46902;52.920;6.536;2023-06-26T13:21:23;25.20;57.80
61016;DHT22;46902;52.920;6.536;2023-06-26T13:23:49;25.10;58.00
61016;DHT22;46902;52.920;6.536;2023-06-26T13:26:14;24.90;58.80
61016;DHT22;46902;52.920;6.536;2023-06-26T13:28:40;25.10;59.30
61016;DHT22;46902;52.920;6.536;2023-06-26T13:31:06;25.30;59.40
61016;DHT22;46902;52.920;6.536;2023-06-26T13:33:31;25.40;58.40
61016;DHT22;46902;52.920;6.536;2023-06-26T13:35:57;25.40;57.70
61016;DHT22;46902;52.920;6.536;2023-06-26T13:38:24;25.30;56.70
61016;DHT22;46902;52.920;6.536;2023-06-26T13:40:54;25.30;57.60
61016;DHT22;46902;52.920;6.536;2023-06-26T13:43:21;25.40;57.30
61016;DHT22;46902;52.920;6.536;2023-06-26T13:45:47;25.20;57.10
61016;DHT22;46902;52.920;6.536;2023-06-26T13:48:13;25.30;58.30
61016;DHT22;46902;52.920;6.536;2023-06-26T13:50:39;25.40;58.10
61016;DHT22;46902;52.920;6.536;2023-06-26T13:53:04;25.40;58.80
61016;DHT22;46902;52.920;6.536;2023-06-26T13:55:31;25.50;59.50
61016;DHT22;46902;52.920;6.536;2023-06-26T13:57:58;25.60;59.40
61016;DHT22;46902;52.920;6.536;2023-06-26T14:00:24;25.70;59.30
61016;DHT22;46902;52.920;6.536;2023-06-26T14:02:50;25.60;59.20
61016;DHT22;46902;52.920;6.536;2023-06-26T14:05:16;25.60;58.80
61016;DHT22;46902;52.920;6.536;2023-06-26T14:07:44;25.60;59.00
61016;DHT22;46902;52.920;6.536;2023-06-26T14:10:10;25.50;58.00
61016;DHT22;46902;52.920;6.536;2023-06-26T14:12:35;25.70;58.30
61016;DHT22;46902;52.920;6.536;2023-06-26T14:15:01;25.70;57.80
61016;DHT22;46902;52.920;6.536;2023-06-26T14:17:27;25.70;57.70
61016;DHT22;46902;52.920;6.536;2023-06-26T14:19:53;25.90;57.50
61016;DHT22;46902;52.920;6.536;2023-06-26T14:22:18;26.00;57.50
61016;DHT22;46902;52.920;6.536;2023-06-26T14:24:44;26.00;56.70
61016;DHT22;46902;52.920;6.536;2023-06-26T14:27:10;25.90;56.30
61016;DHT22;46902;52.920;6.536;2023-06-26T14:29:36;25.90;55.10
61016;DHT22;46902;52.920;6.536;2023-06-26T14:32:03;25.70;55.00
61016;DHT22;46902;52.920;6.536;2023-06-26T14:34:28;25.80;56.10
61016;DHT22;46902;52.920;6.536;2023-06-26T14:36:55;25.60;56.10
61016;DHT22;46902;52.920;6.536;2023-06-26T14:39:20;25.30;56.80
61016;DHT22;46902;52.920;6.536;2023-06-26T14:41:46;25.10;57.80
61016;DHT22;46902;52.920;6.536;2023-06-26T14:44:14;25.00;58.70
61016;DHT22;46902;52.920;6.536;2023-06-26T14:46:39;25.00;58.20
61016;DHT22;46902;52.920;6.536;2023-06-26T14:49:05;25.00;56.80
61016;DHT22;46902;52.920;6.536;2023-06-26T14:51:31;25.00;56.30
61016;DHT22;46902;52.920;6.536;2023-06-26T14:53:57;25.00;56.60
61016;DHT22;46902;52.920;6.536;2023-06-26T14:56:22;24.90;56.30
61016;DHT22;46902;52.920;6.536;2023-06-26T14:58:50;24.90;55.40
61016;DHT22;46902;52.920;6.536;2023-06-26T15:01:20;24.90;55.90
61016;DHT22;46902;52.920;6.536;2023-06-26T15:03:49;24.70;56.40
61016;DHT22;46902;52.920;6.536;2023-06-26T15:06:15;24.60;58.20
61016;DHT22;46902;52.920;6.536;2023-06-26T15:08:40;24.50;57.80
61016;DHT22;46902;52.920;6.536;2023-06-26T15:11:06;24.60;58.10
61016;DHT22;46902;52.920;6.536;2023-06-26T15:13:32;24.50;57.70
61016;DHT22;46902;52.920;6.536;2023-06-26T15:15:57;24.40;58.10
61016;DHT22;46902;52.920;6.536;2023-06-26T15:18:23;24.20;58.70
61016;DHT22;46902;52.920;6.536;2023-06-26T15:20:49;24.00;59.60
61016;DHT22;46902;52.920;6.536;2023-06-26T15:23:14;23.80;59.70
61016;DHT22;46902;52.920;6.536;2023-06-26T15:25:40;23.60;59.70
61016;DHT22;46902;52.920;6.536;2023-06-26T15:28:06;23.60;60.20
61016;DHT22;46902;52.920;6.536;2023-06-26T15:30:32;23.60;61.00
61016;DHT22;46902;52.920;6.536;2023-06-26T15:32:58;23.70;60.70
61016;DHT22;46902;52.920;6.536;2023-06-26T15:35:24;23.80;60.30
61016;DHT22;46902;52.920;6.536;2023-06-26T15:37:50;23.90;60.40
61016;DHT22;46902;52.920;6.536;2023-06-26T15:40:16;24.00;60.40
61016;DHT22;46902;52.920;6.536;2023-06-26T15:42:49;24.10;59.40